sensor_id;sensor_type;location;lat;lon;timestamp;pressure;altitude;pressure_sealevel;temperature;humidity
21359;BME280;13506;50.852;20.632;2023-04-28T00:00:36;98720.03;;;2.23;71.31
21359;BME280;13506;50.852;20.632;2023-04-28T00:03:19;98717.47;;;2.23;70.90
21359;BME280;13506;50.852;20.632;2023-04-28T00:05:47;98725.34;;;2.18;70.89
21359;BME280;13506;50.852;20.632;2023-04-28T00:08:15;98721.91;;;2.19;70.83
21359;BME280;13506;50.852;20.632;2023-04-28T00:10:43;98720.13;;;2.21;70.83
21359;BME280;13506;50.852;20.632;2023-04-28T00:13:11;98716.66;;;2.21;70.88
21359;BME280;13506;50.852;20.632;2023-04-28T00:15:39;98728.72;;;2.20;70.97
21359;BME280;13506;50.852;20.632;2023-04-28T00:18:07;98714.09;;;2.21;71.06
21359;BME280;13506;50.852;20.632;2023-04-28T00:20:36;98726.13;;;2.22;71.30
21359;BME280;13506;50.852;20.632;2023-04-28T00:23:04;98725.28;;;2.21;71.35
21359;BME280;13506;50.852;20.632;2023-04-28T00:25:32;98726.94;;;2.22;71.26
21359;BME280;13506;50.852;20.632;2023-04-28T00:28:00;98731.22;;;2.24;71.85
21359;BME280;13506;50.852;20.632;2023-04-28T00:30:29;98719.84;;;2.03;76.96
21359;BME280;13506;50.852;20.632;2023-04-28T00:32:57;98720.97;;;1.94;78.42
21359;BME280;13506;50.852;20.632;2023-04-28T00:35:25;98728.66;;;1.95;76.99
21359;BME280;13506;50.852;20.632;2023-04-28T00:37:55;98722.47;;;2.01;77.48
21359;BME280;13506;50.852;20.632;2023-04-28T00:40:23;98715.72;;;1.97;78.27
21359;BME280;13506;50.852;20.632;2023-04-28T00:42:59;98709.53;;;2.03;76.98
21359;BME280;13506;50.852;20.632;2023-04-28T00:45:27;98725.66;;;2.09;75.85
21359;BME280;13506;50.852;20.632;2023-04-28T00:47:56;98716.81;;;2.16;74.98
21359;BME280;13506;50.852;20.632;2023-04-28T00:50:25;98730.31;;;2.25;74.64
21359;BME280;13506;50.852;20.632;2023-04-28T00:52:55;98727.56;;;2.31;75.03
21359;BME280;13506;50.852;20.632;2023-04-28T00:55:24;98726.59;;;2.33;74.85
21359;BME280;13506;50.852;20.632;2023-04-28T00:57:55;98724.94;;;2.32;75.33
21359;BME280;13506;50.852;20.632;2023-04-28T01:00:24;98723.13;;;2.08;78.32
21359;BME280;13506;50.852;20.632;2023-04-28T01:02:53;98724.22;;;2.00;78.66
21359;BME280;13506;50.852;20.632;2023-04-28T01:05:23;98724.63;;;1.87;79.69
21359;BME280;13506;50.852;20.632;2023-04-28T01:07:53;98716.09;;;1.56;83.25
21359;BME280;13506;50.852;20.632;2023-04-28T01:10:22;98725.00;;;1.74;81.91
21359;BME280;13506;50.852;20.632;2023-04-28T01:12:50;98718.63;;;1.86;80.99
21359;BME280;13506;50.852;20.632;2023-04-28T01:15:19;98722.00;;;1.88;81.96
21359;BME280;13506;50.852;20.632;2023-04-28T01:17:50;98715.63;;;1.44;85.46
21359;BME280;13506;50.852;20.632;2023-04-28T01:20:19;98713.91;;;1.13;87.80
21359;BME280;13506;50.852;20.632;2023-04-28T01:22:47;98705.47;;;1.08;90.99
21359;BME280;13506;50.852;20.632;2023-04-28T01:25:17;98712.75;;;1.23;89.50
21359;BME280;13506;50.852;20.632;2023-04-28T01:27:45;98712.59;;;1.29;88.48
21359;BME280;13506;50.852;20.632;2023-04-28T01:30:14;98732.50;;;1.54;85.47
21359;BME280;13506;50.852;20.632;2023-04-28T01:32:41;98731.13;;;1.70;83.65
21359;BME280;13506;50.852;20.632;2023-04-28T01:35:09;98729.03;;;1.83;82.25
21359;BME280;13506;50.852;20.632;2023-04-28T01:37:37;98724.03;;;1.78;81.49
21359;BME280;13506;50.852;20.632;2023-04-28T01:40:06;98725.56;;;1.84;82.33
21359;BME280;13506;50.852;20.632;2023-04-28T01:42:36;98715.88;;;1.34;84.57
21359;BME280;13506;50.852;20.632;2023-04-28T01:45:05;98712.16;;;1.13;88.78
21359;BME280;13506;50.852;20.632;2023-04-28T01:47:33;98723.66;;;1.33;86.83
21359;BME280;13506;50.852;20.632;2023-04-28T01:50:01;98721.13;;;1.31;85.68
21359;BME280;13506;50.852;20.632;2023-04-28T01:52:29;98727.34;;;1.54;84.13
21359;BME280;13506;50.852;20.632;2023-04-28T01:54:57;98726.47;;;1.53;84.15
21359;BME280;13506;50.852;20.632;2023-04-28T01:57:25;98720.91;;;1.39;86.26
21359;BME280;13506;50.852;20.632;2023-04-28T01:59:57;98726.38;;;1.58;85.54
21359;BME280;13506;50.852;20.632;2023-04-28T02:02:27;98725.94;;;1.44;85.74
21359;BME280;13506;50.852;20.632;2023-04-28T02:04:55;98723.38;;;1.42;88.14
21359;BME280;13506;50.852;20.632;2023-04-28T02:07:24;98722.91;;;1.29;89.65
21359;BME280;13506;50.852;20.632;2023-04-28T02:09:52;98709.66;;;1.12;91.58
21359;BME280;13506;50.852;20.632;2023-04-28T02:12:20;98719.97;;;1.12;90.40
21359;BME280;13506;50.852;20.632;2023-04-28T02:14:48;98725.31;;;1.35;88.77
21359;BME280;13506;50.852;20.632;2023-04-28T02:17:18;98729.03;;;1.55;86.16
21359;BME280;13506;50.852;20.632;2023-04-28T02:19:46;98732.22;;;1.63;84.78
21359;BME280;13506;50.852;20.632;2023-04-28T02:22:14;98728.50;;;1.44;85.87
21359;BME280;13506;50.852;20.632;2023-04-28T02:24:42;98721.06;;;1.63;86.14
21359;BME280;13506;50.852;20.632;2023-04-28T02:27:10;98721.72;;;1.69;84.61
21359;BME280;13506;50.852;20.632;2023-04-28T02:29:39;98724.94;;;1.77;82.87
21359;BME280;13506;50.852;20.632;2023-04-28T02:32:08;98711.84;;;1.84;81.08
21359;BME280;13506;50.852;20.632;2023-04-28T02:34:37;98726.34;;;1.88;80.97
21359;BME280;13506;50.852;20.632;2023-04-28T02:37:05;98729.56;;;1.94;80.57
21359;BME280;13506;50.852;20.632;2023-04-28T02:39:33;98726.88;;;1.97;79.71
21359;BME280;13506;50.852;20.632;2023-04-28T02:42:01;98724.44;;;1.93;79.99
21359;BME280;13506;50.852;20.632;2023-04-28T02:44:31;98733.59;;;2.03;78.94
21359;BME280;13506;50.852;20.632;2023-04-28T02:46:59;98732.59;;;2.07;78.74
21359;BME280;13506;50.852;20.632;2023-04-28T02:49:27;98725.31;;;1.92;80.55
21359;BME280;13506;50.852;20.632;2023-04-28T02:51:57;98723.59;;;1.64;84.00
21359;BME280;13506;50.852;20.632;2023-04-28T02:54:24;98732.75;;;1.74;81.76
21359;BME280;13506;50.852;20.632;2023-04-28T02:56:56;98745.38;;;1.84;81.18
21359;BME280;13506;50.852;20.632;2023-04-28T02:59:24;98734.78;;;1.65;81.39
21359;BME280;13506;50.852;20.632;2023-04-28T03:01:53;98731.75;;;1.21;86.90
21359;BME280;13506;50.852;20.632;2023-04-28T03:04:21;98732.38;;;1.29;86.77
21359;BME280;13506;50.852;20.632;2023-04-28T03:06:50;98755.88;;;1.48;83.93
21359;BME280;13506;50.852;20.632;2023-04-28T03:09:19;98741.88;;;1.56;83.03
21359;BME280;13506;50.852;20.632;2023-04-28T03:11:47;98742.91;;;1.51;83.39
21359;BME280;13506;50.852;20.632;2023-04-28T03:14:15;98733.53;;;0.86;89.48
21359;BME280;13506;50.852;20.632;2023-04-28T03:16:43;98737.78;;;0.88;91.73
21359;BME280;13506;50.852;20.632;2023-04-28T03:19:12;98745.97;;;0.70;93.69
21359;BME280;13506;50.852;20.632;2023-04-28T03:21:40;98730.22;;;0.48;96.69
21359;BME280;13506;50.852;20.632;2023-04-28T03:24:08;98745.31;;;0.62;95.53
21359;BME280;13506;50.852;20.632;2023-04-28T03:26:37;98748.25;;;0.82;93.54
21359;BME280;13506;50.852;20.632;2023-04-28T03:29:05;98747.69;;;1.02;90.78
21359;BME280;13506;50.852;20.632;2023-04-28T03:31:34;98742.34;;;1.10;90.84
21359;BME280;13506;50.852;20.632;2023-04-28T03:34:01;98736.06;;;1.20;89.64
21359;BME280;13506;50.852;20.632;2023-04-28T03:36:30;98733.34;;;1.25;88.40
21359;BME280;13506;50.852;20.632;2023-04-28T03:39:05;98735.13;;;1.23;89.39
21359;BME280;13506;50.852;20.632;2023-04-28T03:41:34;98732.88;;;1.10;88.16
21359;BME280;13506;50.852;20.632;2023-04-28T03:44:21;98724.41;;;1.36;88.22
21359;BME280;13506;50.852;20.632;2023-04-28T03:46:51;98736.06;;;1.50;85.52
21359;BME280;13506;50.852;20.632;2023-04-28T03:49:19;98727.25;;;1.57;85.21
21359;BME280;13506;50.852;20.632;2023-04-28T03:51:47;98726.38;;;1.58;85.29
21359;BME280;13506;50.852;20.632;2023-04-28T03:54:17;98731.75;;;1.50;86.63
21359;BME280;13506;50.852;20.632;2023-04-28T03:56:46;98733.53;;;1.48;87.26
21359;BME280;13506;50.852;20.632;2023-04-28T03:59:15;98729.72;;;1.60;85.00
21359;BME280;13506;50.852;20.632;2023-04-28T04:01:45;98730.66;;;1.57;85.65
21359;BME280;13506;50.852;20.632;2023-04-28T04:04:12;98731.53;;;1.58;85.60
21359;BME280;13506;50.852;20.632;2023-04-28T04:06:41;98745.75;;;1.71;84.64
21359;BME280;13506;50.852;20.632;2023-04-28T04:09:10;98745.56;;;1.77;83.22
21359;BME280;13506;50.852;20.632;2023-04-28T04:11:38;98738.34;;;1.89;82.93
21359;BME280;13506;50.852;20.632;2023-04-28T04:14:06;98749.09;;;1.75;83.06
21359;BME280;13506;50.852;20.632;2023-04-28T04:16:35;98744.13;;;1.39;87.60
21359;BME280;13506;50.852;20.632;2023-04-28T04:19:06;98743.84;;;1.17;88.10
21359;BME280;13506;50.852;20.632;2023-04-28T04:21:44;98751.94;;;1.34;87.22
21359;BME280;13506;50.852;20.632;2023-04-28T04:24:12;98751.34;;;1.56;87.17
21359;BME280;13506;50.852;20.632;2023-04-28T04:26:40;98745.63;;;1.74;86.25
21359;BME280;13506;50.852;20.632;2023-04-28T04:29:24;98753.22;;;1.51;85.99
21359;BME280;13506;50.852;20.632;2023-04-28T04:31:52;98747.53;;;1.69;87.02
21359;BME280;13506;50.852;20.632;2023-04-28T04:34:22;98753.38;;;1.74;86.44
21359;BME280;13506;50.852;20.632;2023-04-28T04:36:51;98753.16;;;1.82;86.69
21359;BME280;13506;50.852;20.632;2023-04-28T04:39:19;98757.75;;;2.00;86.61
21359;BME280;13506;50.852;20.632;2023-04-28T04:41:48;98754.84;;;2.11;85.56
21359;BME280;13506;50.852;20.632;2023-04-28T04:44:37;98748.50;;;2.21;85.14
21359;BME280;13506;50.852;20.632;2023-04-28T04:47:10;98748.31;;;1.99;86.13
21359;BME280;13506;50.852;20.632;2023-04-28T04:49:40;98754.50;;;1.94;86.83
21359;BME280;13506;50.852;20.632;2023-04-28T04:52:08;98745.50;;;2.07;86.82
21359;BME280;13506;50.852;20.632;2023-04-28T04:54:35;98746.31;;;2.09;86.29
21359;BME280;13506;50.852;20.632;2023-04-28T04:57:04;98758.22;;;2.40;85.96
21359;BME280;13506;50.852;20.632;2023-04-28T05:00:06;98748.91;;;2.63;84.44
21359;BME280;13506;50.852;20.632;2023-04-28T05:02:35;98748.47;;;2.50;85.17
21359;BME280;13506;50.852;20.632;2023-04-28T05:05:06;98750.75;;;2.59;83.86
21359;BME280;13506;50.852;20.632;2023-04-28T05:07:35;98751.19;;;2.72;82.59
21359;BME280;13506;50.852;20.632;2023-04-28T05:10:03;98754.06;;;2.89;81.91
21359;BME280;13506;50.852;20.632;2023-04-28T05:12:32;98757.38;;;3.16;82.83
21359;BME280;13506;50.852;20.632;2023-04-28T05:15:00;98760.63;;;3.47;82.55
21359;BME280;13506;50.852;20.632;2023-04-28T05:17:28;98755.25;;;3.75;81.58
21359;BME280;13506;50.852;20.632;2023-04-28T05:19:56;98751.19;;;3.91;79.67
21359;BME280;13506;50.852;20.632;2023-04-28T05:22:26;98748.59;;;4.13;79.69
21359;BME280;13506;50.852;20.632;2023-04-28T05:24:54;98747.31;;;4.23;78.33
21359;BME280;13506;50.852;20.632;2023-04-28T05:27:22;98746.06;;;4.34;77.50
21359;BME280;13506;50.852;20.632;2023-04-28T05:29:50;98759.53;;;4.42;77.00
21359;BME280;13506;50.852;20.632;2023-04-28T05:32:18;98748.72;;;4.73;76.84
21359;BME280;13506;50.852;20.632;2023-04-28T05:34:46;98752.84;;;4.99;75.65
21359;BME280;13506;50.852;20.632;2023-04-28T05:37:15;98747.19;;;5.31;74.79
21359;BME280;13506;50.852;20.632;2023-04-28T05:39:46;98757.97;;;5.40;72.13
21359;BME280;13506;50.852;20.632;2023-04-28T05:42:14;98749.16;;;5.63;73.16
21359;BME280;13506;50.852;20.632;2023-04-28T05:44:43;98754.50;;;5.79;70.83
21359;BME280;13506;50.852;20.632;2023-04-28T05:47:12;98757.75;;;6.02;71.32
21359;BME280;13506;50.852;20.632;2023-04-28T05:49:40;98760.03;;;6.27;71.89
21359;BME280;13506;50.852;20.632;2023-04-28T05:52:08;98762.94;;;6.38;70.42
21359;BME280;13506;50.852;20.632;2023-04-28T05:54:36;98756.84;;;6.57;69.75
21359;BME280;13506;50.852;20.632;2023-04-28T05:57:06;98756.63;;;6.61;66.42
21359;BME280;13506;50.852;20.632;2023-04-28T05:59:34;98764.91;;;6.87;68.00
21359;BME280;13506;50.852;20.632;2023-04-28T06:02:02;98751.84;;;6.88;66.48
21359;BME280;13506;50.852;20.632;2023-04-28T06:04:30;98758.63;;;7.08;66.84
21359;BME280;13506;50.852;20.632;2023-04-28T06:06:58;98763.53;;;7.15;65.79
21359;BME280;13506;50.852;20.632;2023-04-28T06:09:27;98768.00;;;7.28;65.32
21359;BME280;13506;50.852;20.632;2023-04-28T06:11:55;98762.66;;;7.47;63.21
21359;BME280;13506;50.852;20.632;2023-04-28T06:14:27;98767.94;;;7.30;61.33
21359;BME280;13506;50.852;20.632;2023-04-28T06:16:55;98769.41;;;7.52;61.97
21359;BME280;13506;50.852;20.632;2023-04-28T06:19:23;98766.66;;;7.86;62.56
21359;BME280;13506;50.852;20.632;2023-04-28T06:21:51;98762.81;;;7.94;62.18
21359;BME280;13506;50.852;20.632;2023-04-28T06:24:19;98763.81;;;8.23;61.67
21359;BME280;13506;50.852;20.632;2023-04-28T06:26:52;98756.72;;;8.41;61.61
21359;BME280;13506;50.852;20.632;2023-04-28T06:29:20;98766.72;;;8.48;58.92
21359;BME280;13506;50.852;20.632;2023-04-28T06:31:51;98760.81;;;8.61;59.15
21359;BME280;13506;50.852;20.632;2023-04-28T06:34:24;98767.81;;;8.75;58.08
21359;BME280;13506;50.852;20.632;2023-04-28T06:36:54;98764.31;;;8.90;57.08
21359;BME280;13506;50.852;20.632;2023-04-28T06:39:22;98764.66;;;8.84;55.99
21359;BME280;13506;50.852;20.632;2023-04-28T06:41:50;98755.03;;;9.15;57.55
21359;BME280;13506;50.852;20.632;2023-04-28T06:44:19;98762.41;;;9.22;53.79
21359;BME280;13506;50.852;20.632;2023-04-28T06:46:47;98763.72;;;9.44;51.94
21359;BME280;13506;50.852;20.632;2023-04-28T06:49:16;98767.09;;;9.60;50.08
21359;BME280;13506;50.852;20.632;2023-04-28T06:51:45;98762.78;;;9.88;47.48
21359;BME280;13506;50.852;20.632;2023-04-28T06:54:12;98758.28;;;10.17;47.42
21359;BME280;13506;50.852;20.632;2023-04-28T06:56:43;98758.94;;;10.48;45.96
21359;BME280;13506;50.852;20.632;2023-04-28T06:59:11;98754.06;;;10.69;45.32
21359;BME280;13506;50.852;20.632;2023-04-28T07:01:40;98758.19;;;10.86;45.21
21359;BME280;13506;50.852;20.632;2023-04-28T07:04:07;98750.81;;;10.65;42.28
21359;BME280;13506;50.852;20.632;2023-04-28T07:06:37;98757.47;;;10.96;43.33
21359;BME280;13506;50.852;20.632;2023-04-28T07:09:05;98757.88;;;11.03;43.21
21359;BME280;13506;50.852;20.632;2023-04-28T07:11:33;98752.69;;;11.29;44.25
21359;BME280;13506;50.852;20.632;2023-04-28T07:14:00;98750.13;;;11.66;44.74
21359;BME280;13506;50.852;20.632;2023-04-28T07:16:29;98757.50;;;11.97;41.63
21359;BME280;13506;50.852;20.632;2023-04-28T07:18:57;98753.50;;;12.29;41.08
21359;BME280;13506;50.852;20.632;2023-04-28T07:21:25;98750.88;;;12.53;40.95
21359;BME280;13506;50.852;20.632;2023-04-28T07:23:55;98742.66;;;12.93;41.30
21359;BME280;13506;50.852;20.632;2023-04-28T07:26:23;98729.41;;;13.28;40.20
21359;BME280;13506;50.852;20.632;2023-04-28T07:28:50;98739.25;;;13.49;38.50
21359;BME280;13506;50.852;20.632;2023-04-28T07:31:19;98734.00;;;13.71;36.98
21359;BME280;13506;50.852;20.632;2023-04-28T07:33:47;98724.97;;;13.85;37.62
21359;BME280;13506;50.852;20.632;2023-04-28T07:36:15;98723.97;;;14.09;38.12
21359;BME280;13506;50.852;20.632;2023-04-28T07:38:43;98725.28;;;12.79;40.16
21359;BME280;13506;50.852;20.632;2023-04-28T07:41:12;98724.03;;;13.07;40.31
21359;BME280;13506;50.852;20.632;2023-04-28T07:43:40;98721.22;;;13.33;40.09
21359;BME280;13506;50.852;20.632;2023-04-28T07:46:09;98725.03;;;13.40;39.29
21359;BME280;13506;50.852;20.632;2023-04-28T07:48:37;98714.84;;;13.02;39.92
21359;BME280;13506;50.852;20.632;2023-04-28T07:51:05;98723.94;;;12.62;40.46
21359;BME280;13506;50.852;20.632;2023-04-28T07:53:33;98727.28;;;12.16;37.62
21359;BME280;13506;50.852;20.632;2023-04-28T07:56:02;98728.22;;;12.04;37.05
21359;BME280;13506;50.852;20.632;2023-04-28T07:58:31;98723.50;;;12.20;37.35
21359;BME280;13506;50.852;20.632;2023-04-28T08:00:59;98714.81;;;12.44;39.17
21359;BME280;13506;50.852;20.632;2023-04-28T08:03:27;98714.19;;;12.75;39.04
21359;BME280;13506;50.852;20.632;2023-04-28T08:05:55;98717.22;;;12.93;37.48
21359;BME280;13506;50.852;20.632;2023-04-28T08:08:23;98708.16;;;12.97;38.35
21359;BME280;13506;50.852;20.632;2023-04-28T08:10:51;98714.69;;;12.81;37.24
21359;BME280;13506;50.852;20.632;2023-04-28T08:13:20;98708.75;;;13.12;37.39
21359;BME280;13506;50.852;20.632;2023-04-28T08:15:49;98708.88;;;13.11;37.03
21359;BME280;13506;50.852;20.632;2023-04-28T08:18:17;98700.72;;;12.80;36.91
21359;BME280;13506;50.852;20.632;2023-04-28T08:20:45;98709.00;;;13.21;36.39
21359;BME280;13506;50.852;20.632;2023-04-28T08:23:13;98704.38;;;13.35;36.66
21359;BME280;13506;50.852;20.632;2023-04-28T08:25:42;98699.25;;;13.34;37.02
21359;BME280;13506;50.852;20.632;2023-04-28T08:28:10;98703.38;;;13.70;36.29
21359;BME280;13506;50.852;20.632;2023-04-28T08:30:38;98698.63;;;13.53;35.90
21359;BME280;13506;50.852;20.632;2023-04-28T08:33:07;98686.13;;;12.65;36.56
21359;BME280;13506;50.852;20.632;2023-04-28T08:35:35;98682.34;;;12.80;37.05
21359;BME280;13506;50.852;20.632;2023-04-28T08:38:03;98688.31;;;12.93;36.51
21359;BME280;13506;50.852;20.632;2023-04-28T08:40:31;98682.09;;;12.94;36.42
21359;BME280;13506;50.852;20.632;2023-04-28T08:42:59;98681.78;;;13.10;35.01
21359;BME280;13506;50.852;20.632;2023-04-28T08:45:29;98685.63;;;12.24;35.70
21359;BME280;13506;50.852;20.632;2023-04-28T08:48:00;98672.44;;;12.84;35.84
21359;BME280;13506;50.852;20.632;2023-04-28T08:50:31;98676.63;;;13.09;36.64
21359;BME280;13506;50.852;20.632;2023-04-28T08:53:04;98674.63;;;13.01;36.56
21359;BME280;13506;50.852;20.632;2023-04-28T08:55:35;98671.63;;;13.51;36.73
21359;BME280;13506;50.852;20.632;2023-04-28T08:58:04;98670.91;;;13.04;35.20
21359;BME280;13506;50.852;20.632;2023-04-28T09:00:35;98675.53;;;12.77;34.94
21359;BME280;13506;50.852;20.632;2023-04-28T09:03:04;98670.25;;;12.66;35.26
21359;BME280;13506;50.852;20.632;2023-04-28T09:05:36;98672.56;;;12.82;35.03
21359;BME280;13506;50.852;20.632;2023-04-28T09:08:04;98666.97;;;12.98;35.06
21359;BME280;13506;50.852;20.632;2023-04-28T09:10:32;98668.78;;;13.31;33.58
21359;BME280;13506;50.852;20.632;2023-04-28T09:13:00;98660.25;;;13.62;33.79
21359;BME280;13506;50.852;20.632;2023-04-28T09:15:30;98661.25;;;13.93;33.63
21359;BME280;13506;50.852;20.632;2023-04-28T09:17:58;98664.84;;;14.24;34.00
21359;BME280;13506;50.852;20.632;2023-04-28T09:20:27;98663.75;;;14.27;32.79
21359;BME280;13506;50.852;20.632;2023-04-28T09:23:12;98667.59;;;14.55;32.81
21359;BME280;13506;50.852;20.632;2023-04-28T09:25:53;98664.53;;;14.38;33.08
21359;BME280;13506;50.852;20.632;2023-04-28T09:28:22;98659.06;;;13.98;32.32
21359;BME280;13506;50.852;20.632;2023-04-28T09:30:50;98653.63;;;14.22;32.47
21359;BME280;13506;50.852;20.632;2023-04-28T09:33:18;98658.97;;;14.53;32.23
21359;BME280;13506;50.852;20.632;2023-04-28T09:35:47;98652.59;;;13.70;33.24
21359;BME280;13506;50.852;20.632;2023-04-28T09:38:17;98655.97;;;14.36;33.07
21359;BME280;13506;50.852;20.632;2023-04-28T09:40:58;98651.91;;;15.05;33.72
21359;BME280;13506;50.852;20.632;2023-04-28T09:43:28;98641.28;;;15.47;31.98
21359;BME280;13506;50.852;20.632;2023-04-28T09:45:59;98632.28;;;15.59;31.86
21359;BME280;13506;50.852;20.632;2023-04-28T09:48:29;98630.22;;;15.73;31.86
21359;BME280;13506;50.852;20.632;2023-04-28T09:50:58;98631.91;;;15.83;31.43
21359;BME280;13506;50.852;20.632;2023-04-28T09:53:28;98640.72;;;15.13;31.34
21359;BME280;13506;50.852;20.632;2023-04-28T09:55:58;98632.81;;;15.13;31.90
21359;BME280;13506;50.852;20.632;2023-04-28T09:58:27;98637.41;;;15.20;31.42
21359;BME280;13506;50.852;20.632;2023-04-28T10:00:57;98626.16;;;15.18;31.02
21359;BME280;13506;50.852;20.632;2023-04-28T10:03:27;98643.09;;;15.16;31.20
21359;BME280;13506;50.852;20.632;2023-04-28T10:05:56;98632.72;;;15.24;30.89
21359;BME280;13506;50.852;20.632;2023-04-28T10:08:26;98629.03;;;15.46;31.61
21359;BME280;13506;50.852;20.632;2023-04-28T10:10:55;98612.03;;;15.99;32.39
21359;BME280;13506;50.852;20.632;2023-04-28T10:13:24;98618.28;;;16.37;30.48
21359;BME280;13506;50.852;20.632;2023-04-28T10:15:52;98601.25;;;16.69;29.30
21359;BME280;13506;50.852;20.632;2023-04-28T10:18:22;98613.69;;;16.86;29.10
21359;BME280;13506;50.852;20.632;2023-04-28T10:20:55;98605.41;;;16.71;28.71
21359;BME280;13506;50.852;20.632;2023-04-28T10:23:40;98607.47;;;16.77;29.37
21359;BME280;13506;50.852;20.632;2023-04-28T10:26:15;98600.66;;;16.84;28.99
21359;BME280;13506;50.852;20.632;2023-04-28T10:28:46;98587.72;;;16.81;29.23
21359;BME280;13506;50.852;20.632;2023-04-28T10:31:15;98596.22;;;16.75;28.70
21359;BME280;13506;50.852;20.632;2023-04-28T10:33:44;98589.50;;;16.91;28.77
21359;BME280;13506;50.852;20.632;2023-04-28T10:36:48;98585.53;;;17.14;29.70
21359;BME280;13506;50.852;20.632;2023-04-28T10:39:19;98597.38;;;17.38;28.65
21359;BME280;13506;50.852;20.632;2023-04-28T10:41:47;98588.59;;;17.37;27.67
21359;BME280;13506;50.852;20.632;2023-04-28T10:44:42;98591.00;;;17.31;28.12
21359;BME280;13506;50.852;20.632;2023-04-28T10:47:10;98567.91;;;17.33;28.55
21359;BME280;13506;50.852;20.632;2023-04-28T10:50:04;98577.34;;;17.53;29.31
21359;BME280;13506;50.852;20.632;2023-04-28T10:52:48;98569.56;;;17.70;28.02
21359;BME280;13506;50.852;20.632;2023-04-28T10:55:28;98563.25;;;17.17;27.77
21359;BME280;13506;50.852;20.632;2023-04-28T10:58:30;98563.47;;;17.23;27.89
21359;BME280;13506;50.852;20.632;2023-04-28T11:01:25;98558.31;;;17.50;28.27
21359;BME280;13506;50.852;20.632;2023-04-28T11:03:54;98561.00;;;17.40;28.39
21359;BME280;13506;50.852;20.632;2023-04-28T11:06:30;98551.41;;;17.75;29.21
21359;BME280;13506;50.852;20.632;2023-04-28T11:09:01;98556.09;;;17.81;27.66
21359;BME280;13506;50.852;20.632;2023-04-28T11:11:31;98554.66;;;18.04;27.50
21359;BME280;13506;50.852;20.632;2023-04-28T11:14:31;98544.53;;;18.00;26.46
21359;BME280;13506;50.852;20.632;2023-04-28T11:17:01;98550.66;;;17.82;26.90
21359;BME280;13506;50.852;20.632;2023-04-28T11:19:30;98548.09;;;17.73;27.23
21359;BME280;13506;50.852;20.632;2023-04-28T11:22:00;98555.13;;;17.82;27.49
21359;BME280;13506;50.852;20.632;2023-04-28T11:24:29;98540.47;;;18.05;27.92
21359;BME280;13506;50.852;20.632;2023-04-28T11:27:00;98546.31;;;18.17;27.40
21359;BME280;13506;50.852;20.632;2023-04-28T11:29:32;98542.50;;;18.12;26.90
21359;BME280;13506;50.852;20.632;2023-04-28T11:32:02;98536.47;;;18.01;27.17
21359;BME280;13506;50.852;20.632;2023-04-28T11:34:30;98534.59;;;18.20;29.86
21359;BME280;13506;50.852;20.632;2023-04-28T11:36:58;98533.66;;;18.29;28.33
21359;BME280;13506;50.852;20.632;2023-04-28T11:39:28;98529.78;;;18.41;27.24
21359;BME280;13506;50.852;20.632;2023-04-28T11:41:59;98531.91;;;18.38;26.87
21359;BME280;13506;50.852;20.632;2023-04-28T11:44:28;98533.19;;;18.34;27.51
21359;BME280;13506;50.852;20.632;2023-04-28T11:46:58;98532.72;;;18.12;27.38
21359;BME280;13506;50.852;20.632;2023-04-28T11:49:27;98530.03;;;17.86;27.42
21359;BME280;13506;50.852;20.632;2023-04-28T11:51:56;98538.50;;;17.54;27.37
21359;BME280;13506;50.852;20.632;2023-04-28T11:54:26;98534.72;;;17.20;27.81
21359;BME280;13506;50.852;20.632;2023-04-28T11:56:56;98527.47;;;17.22;29.69
21359;BME280;13506;50.852;20.632;2023-04-28T11:59:27;98523.00;;;17.41;28.54
21359;BME280;13506;50.852;20.632;2023-04-28T12:01:57;98522.47;;;15.58;30.38
21359;BME280;13506;50.852;20.632;2023-04-28T12:04:27;98519.69;;;14.80;30.79
21359;BME280;13506;50.852;20.632;2023-04-28T12:07:02;98518.53;;;15.14;31.00
21359;BME280;13506;50.852;20.632;2023-04-28T12:09:30;98515.25;;;15.41;30.19
21359;BME280;13506;50.852;20.632;2023-04-28T12:12:00;98499.72;;;15.57;30.21
21359;BME280;13506;50.852;20.632;2023-04-28T12:14:31;98499.44;;;15.60;30.96
21359;BME280;13506;50.852;20.632;2023-04-28T12:17:01;98507.75;;;15.85;31.01
21359;BME280;13506;50.852;20.632;2023-04-28T12:19:31;98509.50;;;16.14;31.27
21359;BME280;13506;50.852;20.632;2023-04-28T12:22:10;98512.41;;;16.30;29.09
21359;BME280;13506;50.852;20.632;2023-04-28T12:24:39;98505.31;;;16.31;29.32
21359;BME280;13506;50.852;20.632;2023-04-28T12:27:18;98492.09;;;16.40;29.98
21359;BME280;13506;50.852;20.632;2023-04-28T12:29:48;98497.69;;;16.65;29.87
21359;BME280;13506;50.852;20.632;2023-04-28T12:32:17;98481.50;;;16.78;29.33
21359;BME280;13506;50.852;20.632;2023-04-28T12:34:46;98488.31;;;16.80;28.55
21359;BME280;13506;50.852;20.632;2023-04-28T12:37:16;98475.81;;;15.88;29.40
21359;BME280;13506;50.852;20.632;2023-04-28T12:39:43;98478.16;;;15.13;30.57
21359;BME280;13506;50.852;20.632;2023-04-28T12:42:11;98467.94;;;15.49;30.40
21359;BME280;13506;50.852;20.632;2023-04-28T12:44:39;98478.84;;;15.25;30.81
21359;BME280;13506;50.852;20.632;2023-04-28T12:47:09;98475.09;;;14.98;31.08
21359;BME280;13506;50.852;20.632;2023-04-28T12:49:37;98467.69;;;14.32;32.25
21359;BME280;13506;50.852;20.632;2023-04-28T12:52:06;98469.47;;;13.80;33.19
21359;BME280;13506;50.852;20.632;2023-04-28T12:54:34;98466.72;;;13.82;32.80
21359;BME280;13506;50.852;20.632;2023-04-28T12:57:03;98464.44;;;14.50;31.75
21359;BME280;13506;50.852;20.632;2023-04-28T12:59:31;98453.16;;;14.88;31.04
21359;BME280;13506;50.852;20.632;2023-04-28T13:01:59;98474.72;;;15.13;30.37
21359;BME280;13506;50.852;20.632;2023-04-28T13:04:28;98464.97;;;15.23;30.26
21359;BME280;13506;50.852;20.632;2023-04-28T13:06:57;98460.75;;;15.32;30.15
21359;BME280;13506;50.852;20.632;2023-04-28T13:09:25;98455.06;;;15.36;29.77